Hiroshimanishi, Japan

6:28 PM JST on July 28, 2014 (GMT +0900)
Hiroshima (RJOA) Elev 1096 ft | 34.44 °N, 132.92 °E | Change Station

Current weather conditions updated 28 minutes ago

Partly Cloudy
Partly Cloudy
77 °F
Feels Like 77 °F
N
5
Wind Variable Wind from SE

Tomorrow is forecast to be Warmer than today.

Today
High -- | Low -- °F
--% Chance of Precip.
Yesterday
High -- | Low -- °F
Precip. -- in
5:17 AM 7:15 PM
New Moon, 2% visible
Pressure 29.80 in
Visibility 6.2 miles
Clouds Few 2500 ft
Dew Point 64 °F
Humidity 65%
Rainfall 0.00 in
Snow Depth Not available.
UV 1 out of 12
Pollen Not available.
Air Quality Not available.
Flu Activity Not available.
METAR RJOA 280900Z 13004KT 9999 FEW025 BKN/// 25/18 Q1009

More Conditions Fewer Conditions

Pressure 29.80 in
Visibility 6.2 miles
Clouds Few 2500 ft
Dew Point 64 °F
Humidity 65%
Rainfall 0.00 in
Snow Depth Not available.
UV 1 out of 12
Pollen Not available.
Air Quality Not available.
Flu Activity Not available.
METAR RJOA 280900Z 13004KT 9999 FEW025 BKN/// 25/18 Q1009

More Conditions Fewer Conditions

10-Day Weather Forecast

Almanac

Astronomy

Jul. 28, 2014 Rise Set
Actual Time 5:17 AM JST 7:15 PM JST
Civil Twilight 4:49 AM JST 7:43 PM JST
Nautical Twilight 4:15 AM JST 8:17 PM JST
Astronomical Twilight 3:39 AM JST 8:53 PM JST
Moon 6:20 AM JST 7:44 PM JST
Length of Visible Light 14h 53m
Length of Day
13h 57m
Tomorrow will be 1m 29s shorter.
New Moon, 2% of the Moon is Illuminated
Today
New Moon
Aug 3
First Quarter
Aug 10
Full
Aug 17
Last Quarter
Aug 25
New

Yesterday's Extremes

Country Highs Country Lows

Community

WunderPhotos

Upload Photos

1,738,296 photos uploaded!

Nearby

Snow Depth

Not available.

Earthquake Activity

City Distance Mag. Time & Date
No recent earthquake activity has been reported nearby.
Minimum magnitude displayed is 2.5.

Coastal Water Temperatures

Place Temperature
No Stations Reporting

Nearby Weather Stations

There are no personal weather stations in this area.